createdAt,value
2023-01-29T00:01:10.618Z,-1.08
2023-01-29T00:03:40.022Z,-1.12
2023-01-29T00:06:34.089Z,-1.16
2023-01-29T00:09:15.772Z,-1.24
2023-01-29T00:11:47.102Z,-1.27
2023-01-29T00:14:15.848Z,-1.33
2023-01-29T00:16:46.374Z,-1.37
2023-01-29T00:19:18.629Z,-1.42
2023-01-29T00:21:46.716Z,-1.47
2023-01-29T00:24:15.680Z,-1.49
2023-01-29T00:26:43.697Z,-1.51
2023-01-29T00:29:14.052Z,-1.55
2023-01-29T00:31:48.670Z,-1.60
2023-01-29T00:34:18.603Z,-1.62
2023-01-29T00:36:48.901Z,-1.65
2023-01-29T00:39:17.160Z,-1.67
2023-01-29T00:42:07.506Z,-1.73
2023-01-29T00:44:55.646Z,-1.72
2023-01-29T00:47:33.262Z,-1.75
2023-01-29T00:50:05.234Z,-1.75
2023-01-29T00:52:33.321Z,-1.79
2023-01-29T00:55:02.437Z,-1.79
2023-01-29T00:57:41.650Z,-1.85
2023-01-29T01:00:19.530Z,-1.84
2023-01-29T01:03:06.928Z,-1.84
2023-01-29T01:05:37.270Z,-1.86
2023-01-29T01:08:27.928Z,-1.86
2023-01-29T01:11:06.203Z,-1.89
2023-01-29T01:13:43.232Z,-1.90
2023-01-29T01:16:16.539Z,-1.91
2023-01-29T01:18:46.109Z,-1.92
2023-01-29T01:21:14.642Z,-1.94
2023-01-29T01:23:43.903Z,-1.94
2023-01-29T01:26:20.531Z,-1.94
2023-01-29T01:28:48.784Z,-1.94
2023-01-29T01:31:18.890Z,-1.95
2023-01-29T01:34:01.110Z,-1.94
2023-01-29T01:36:32.418Z,-1.93
2023-01-29T01:39:00.492Z,-1.93
2023-01-29T01:41:37.792Z,-1.91
2023-01-29T01:44:08.139Z,-1.89
2023-01-29T01:46:38.187Z,-1.88
2023-01-29T01:49:26.353Z,-1.85
2023-01-29T01:51:55.181Z,-1.84
2023-01-29T01:54:30.385Z,-1.82
2023-01-29T01:57:16.067Z,-1.79
2023-01-29T02:00:16.730Z,-1.77
2023-01-29T02:03:07.667Z,-1.77
2023-01-29T02:05:55.845Z,-1.75
2023-01-29T02:09:22.776Z,-1.71
2023-01-29T02:11:53.775Z,-1.72
2023-01-29T02:14:25.650Z,-1.65
2023-01-29T02:16:53.835Z,-1.61
2023-01-29T02:19:58.300Z,-1.56
2023-01-29T02:22:59.348Z,-1.51
2023-01-29T02:25:30.839Z,-1.43
2023-01-29T02:28:24.818Z,-1.38
2023-01-29T02:31:19.717Z,-1.34
2023-01-29T02:34:11.422Z,-1.31
2023-01-29T02:36:48.237Z,-1.30
2023-01-29T02:39:39.774Z,-1.24
2023-01-29T02:42:37.282Z,-1.20
2023-01-29T02:45:29.471Z,-1.15
2023-01-29T02:48:01.221Z,-1.13
2023-01-29T02:50:54.564Z,-1.08
2023-01-29T02:53:40.978Z,-1.12
2023-01-29T02:57:05.696Z,-1.06
2023-01-29T02:59:44.231Z,-1.06
2023-01-29T03:02:22.142Z,-1.04
2023-01-29T03:05:01.014Z,-1.06
2023-01-29T03:07:48.343Z,-1.05
2023-01-29T03:10:46.709Z,-1.08
2023-01-29T03:13:44.814Z,-1.05
2023-01-29T03:16:44.374Z,-1.04
2023-01-29T03:19:36.543Z,-1.05
2023-01-29T03:22:12.478Z,-1.06
2023-01-29T03:25:20.837Z,-1.02
2023-01-29T03:28:15.731Z,-0.99
2023-01-29T03:31:09.734Z,-0.98
2023-01-29T03:33:58.532Z,-0.92
2023-01-29T03:36:39.803Z,-0.88
2023-01-29T03:39:09.648Z,-0.86
2023-01-29T03:42:12.906Z,-0.86
2023-01-29T03:45:05.473Z,-0.83
2023-01-29T03:48:16.885Z,-0.79
2023-01-29T03:51:21.693Z,-0.77
2023-01-29T03:54:09.130Z,-0.73
2023-01-29T03:56:57.803Z,-0.75
2023-01-29T03:59:57.710Z,-0.76
2023-01-29T04:02:58.982Z,-0.77
2023-01-29T04:05:33.461Z,-0.80
2023-01-29T04:08:25.960Z,-0.79
2023-01-29T04:13:42.141Z,-0.84
2023-01-29T04:16:21.241Z,-0.86
2023-01-29T04:19:09.673Z,-0.84
2023-01-29T04:21:49.275Z,-0.89
2023-01-29T04:24:18.293Z,-0.86
2023-01-29T04:27:31.294Z,-0.88
2023-01-29T04:30:35.842Z,-0.84
2023-01-29T04:33:19.277Z,-0.84
2023-01-29T04:36:01.223Z,-0.86
2023-01-29T04:38:55.454Z,-0.87
2023-01-29T04:41:57.122Z,-0.91
2023-01-29T04:45:05.600Z,-0.91
2023-01-29T04:47:39.203Z,-0.94
2023-01-29T04:50:33.061Z,-0.95
2023-01-29T04:53:26.145Z,-0.95
2023-01-29T04:56:26.320Z,-0.93
2023-01-29T04:59:45.834Z,-0.92
2023-01-29T05:02:15.179Z,-0.87
2023-01-29T05:04:46.954Z,-0.89
2023-01-29T05:07:18.454Z,-0.86
2023-01-29T05:09:51.710Z,-0.83
2023-01-29T05:12:19.751Z,-0.80
2023-01-29T05:14:49.802Z,-0.80
2023-01-29T05:17:20.568Z,-0.79
2023-01-29T05:19:52.074Z,-0.78
2023-01-29T05:22:26.761Z,-0.77
2023-01-29T05:25:04.790Z,-0.74
2023-01-29T05:27:54.496Z,-0.70
2023-01-29T05:30:22.800Z,-0.65
2023-01-29T05:32:50.568Z,-0.63
2023-01-29T05:35:18.402Z,-0.61
2023-01-29T05:37:47.480Z,-0.58
2023-01-29T05:40:17.068Z,-0.56
2023-01-29T05:42:46.331Z,-0.53
2023-01-29T05:45:14.255Z,-0.50
2023-01-29T05:47:50.319Z,-0.48
2023-01-29T05:50:19.514Z,-0.47
2023-01-29T05:52:58.292Z,-0.44
2023-01-29T05:55:27.046Z,-0.41
2023-01-29T05:57:57.164Z,-0.36
2023-01-29T06:00:25.750Z,-0.32
2023-01-29T06:02:54.270Z,-0.33
2023-01-29T06:05:25.896Z,-0.31
2023-01-29T06:07:58.050Z,-0.27
2023-01-29T06:10:25.657Z,-0.24
2023-01-29T06:12:55.060Z,-0.24
2023-01-29T06:15:26.859Z,-0.22
2023-01-29T06:18:07.147Z,-0.19
2023-01-29T06:20:35.003Z,-0.17
2023-01-29T06:23:04.882Z,-0.14
2023-01-29T06:25:34.972Z,-0.14
2023-01-29T06:28:13.218Z,-0.13
2023-01-29T06:30:45.954Z,-0.14
2023-01-29T06:33:18.480Z,-0.14
2023-01-29T06:35:55.527Z,-0.13
2023-01-29T06:38:29.579Z,-0.11
2023-01-29T06:40:59.114Z,-0.12
2023-01-29T06:43:42.852Z,-0.09
2023-01-29T06:46:13.246Z,-0.11
2023-01-29T06:48:47.114Z,-0.10
2023-01-29T06:51:17.242Z,-0.09
2023-01-29T06:53:47.176Z,-0.10
2023-01-29T06:56:18.220Z,-0.11
2023-01-29T06:58:52.187Z,-0.09
2023-01-29T07:01:36.154Z,-0.07
2023-01-29T07:04:04.684Z,-0.07
2023-01-29T07:06:40.397Z,-0.07
2023-01-29T07:09:11.710Z,-0.05
2023-01-29T07:11:39.831Z,-0.02
2023-01-29T07:14:10.474Z,0.01
2023-01-29T07:16:39.210Z,0.02
2023-01-29T07:19:18.696Z,0.03
2023-01-29T07:21:46.455Z,0.02
2023-01-29T07:24:14.890Z,0.03
2023-01-29T07:26:44.844Z,0.03
2023-01-29T07:29:15.334Z,0.05
2023-01-29T07:31:45.337Z,0.09
2023-01-29T07:34:14.284Z,0.11
2023-01-29T07:36:42.493Z,0.14
2023-01-29T07:39:11.886Z,0.15
2023-01-29T07:41:40.143Z,0.17
2023-01-29T07:44:21.527Z,0.18
2023-01-29T07:46:58.949Z,0.18
2023-01-29T07:49:29.440Z,0.17
2023-01-29T07:52:04.777Z,0.18
2023-01-29T07:54:36.510Z,0.24
2023-01-29T07:57:05.229Z,0.21
2023-01-29T07:59:32.930Z,0.21
2023-01-29T08:02:01.018Z,0.23
2023-01-29T08:04:32.396Z,0.18
2023-01-29T08:07:01.774Z,0.23
2023-01-29T08:09:33.019Z,0.25
2023-01-29T08:12:07.325Z,0.25
2023-01-29T08:14:37.289Z,0.28
2023-01-29T08:17:08.613Z,0.31
2023-01-29T08:19:46.001Z,0.33
2023-01-29T08:22:17.099Z,0.35
2023-01-29T08:24:53.743Z,0.37
2023-01-29T08:27:30.969Z,0.35
2023-01-29T08:29:59.679Z,0.40
2023-01-29T08:32:36.530Z,0.43
2023-01-29T08:35:04.678Z,0.41
2023-01-29T08:37:35.643Z,0.44
2023-01-29T08:40:04.965Z,0.41
2023-01-29T08:42:34.367Z,0.42
2023-01-29T08:45:02.419Z,0.43
2023-01-29T08:47:31.056Z,0.45
2023-01-29T08:49:58.824Z,0.47
2023-01-29T08:52:35.828Z,0.52
2023-01-29T08:55:08.433Z,0.54
2023-01-29T08:57:42.599Z,0.56
2023-01-29T09:00:12.667Z,0.57
2023-01-29T09:02:43.173Z,0.56
2023-01-29T09:05:14.688Z,0.56
2023-01-29T09:07:42.589Z,0.61
2023-01-29T09:10:14.668Z,0.62
2023-01-29T09:12:44.169Z,0.63
2023-01-29T09:15:15.464Z,0.66
2023-01-29T09:17:45.937Z,0.67
2023-01-29T09:20:13.863Z,0.69
2023-01-29T09:23:05.352Z,0.72
2023-01-29T09:28:54.709Z,0.76
2023-01-29T09:31:32.255Z,0.77
2023-01-29T09:34:11.040Z,0.79
2023-01-29T09:36:38.795Z,0.81
2023-01-29T09:39:07.990Z,0.83
2023-01-29T09:42:27.122Z,0.87
2023-01-29T09:45:06.180Z,0.92
2023-01-29T09:47:43.442Z,0.94
2023-01-29T09:50:24.697Z,1.00
2023-01-29T09:53:30.328Z,1.01
2023-01-29T09:56:09.812Z,1.05
2023-01-29T09:58:45.299Z,1.08
2023-01-29T10:02:00.782Z,1.11
2023-01-29T10:04:48.209Z,1.13
2023-01-29T10:07:50.377Z,1.19
2023-01-29T10:10:44.378Z,1.19
2023-01-29T10:17:38.121Z,1.34
2023-01-29T10:21:15.756Z,1.38
2023-01-29T10:24:18.061Z,1.44
2023-01-29T10:26:58.769Z,1.46
2023-01-29T10:29:37.371Z,1.47
2023-01-29T10:32:18.091Z,1.46
2023-01-29T10:35:02.918Z,1.48
2023-01-29T10:37:44.302Z,1.49
2023-01-29T10:40:41.733Z,1.51
2023-01-29T10:47:06.812Z,1.55
2023-01-29T10:50:28.771Z,1.57
2023-01-29T10:53:26.241Z,1.60
2023-01-29T10:56:39.578Z,1.59
2023-01-29T10:59:49.624Z,1.61
2023-01-29T11:02:21.883Z,1.66
2023-01-29T11:05:34.579Z,1.72
2023-01-29T11:08:24.451Z,1.76
2023-01-29T11:11:04.188Z,1.76
2023-01-29T11:14:04.343Z,1.78
2023-01-29T11:16:41.004Z,1.86
2023-01-29T11:19:37.102Z,1.90
2023-01-29T11:22:35.527Z,1.95
2023-01-29T11:25:21.166Z,2.01
2023-01-29T11:28:16.963Z,2.03
2023-01-29T11:31:18.898Z,2.04
2023-01-29T11:34:22.497Z,2.11
2023-01-29T11:37:18.220Z,2.13
2023-01-29T11:42:43.263Z,2.25
2023-01-29T11:45:35.071Z,2.24
2023-01-29T11:48:03.451Z,2.29
2023-01-29T11:50:37.323Z,2.32
2023-01-29T11:53:26.244Z,2.30
2023-01-29T11:56:05.321Z,2.33
2023-01-29T11:58:36.813Z,2.36
2023-01-29T12:03:56.287Z,2.41
2023-01-29T12:06:41.130Z,2.40
2023-01-29T12:12:52.000Z,2.47
2023-01-29T12:15:25.479Z,2.45
2023-01-29T12:18:13.207Z,2.43
2023-01-29T12:21:13.677Z,2.43
2023-01-29T12:24:10.820Z,2.40
2023-01-29T12:26:56.915Z,2.40
2023-01-29T12:29:39.899Z,2.40
2023-01-29T12:32:15.175Z,2.40
2023-01-29T12:38:47.196Z,2.35
2023-01-29T12:41:45.929Z,2.37
2023-01-29T12:44:29.925Z,2.38
2023-01-29T12:47:03.443Z,2.36
2023-01-29T12:49:43.156Z,2.40
2023-01-29T12:53:07.153Z,2.43
2023-01-29T12:56:03.480Z,2.45
2023-01-29T12:58:52.108Z,2.48
2023-01-29T13:01:37.556Z,2.49
2023-01-29T13:04:46.480Z,2.50
2023-01-29T13:11:21.156Z,2.55
2023-01-29T13:14:11.213Z,2.60
2023-01-29T13:16:55.189Z,2.61
2023-01-29T13:19:44.501Z,2.64
2023-01-29T13:26:02.459Z,2.64
2023-01-29T13:28:35.475Z,2.65
2023-01-29T13:31:35.877Z,2.66
2023-01-29T13:34:24.478Z,2.67
2023-01-29T13:37:20.576Z,2.68
2023-01-29T13:40:04.491Z,2.67
2023-01-29T13:42:53.400Z,2.65
2023-01-29T13:49:02.340Z,2.62
2023-01-29T13:52:26.569Z,2.62
2023-01-29T13:55:43.396Z,2.61
2023-01-29T13:58:44.411Z,2.61
2023-01-29T14:04:41.206Z,2.58
2023-01-29T14:07:47.917Z,2.57
2023-01-29T14:10:41.937Z,2.51
2023-01-29T14:13:27.704Z,2.50
2023-01-29T14:16:06.972Z,2.51
2023-01-29T14:21:31.183Z,2.50
2023-01-29T14:24:50.318Z,2.53
2023-01-29T14:27:28.313Z,2.54
2023-01-29T14:30:13.120Z,2.53
2023-01-29T14:33:08.443Z,2.50
2023-01-29T14:38:29.845Z,2.58
2023-01-29T14:45:21.535Z,2.61
2023-01-29T14:47:56.044Z,2.62
2023-01-29T14:50:35.294Z,2.64
2023-01-29T14:53:26.952Z,2.65
2023-01-29T14:56:12.656Z,2.66
2023-01-29T14:59:35.250Z,2.66
2023-01-29T15:02:44.030Z,2.65
2023-01-29T15:05:42.711Z,2.69
2023-01-29T15:12:45.940Z,2.71
2023-01-29T15:19:49.698Z,2.69
2023-01-29T15:30:09.711Z,2.65
2023-01-29T15:32:54.931Z,2.68
2023-01-29T15:39:07.359Z,2.63
2023-01-29T15:41:36.859Z,2.63
2023-01-29T15:44:22.816Z,2.62
2023-01-29T15:47:03.128Z,2.61
2023-01-29T15:49:40.018Z,2.60
2023-01-29T15:52:26.940Z,2.62
2023-01-29T15:55:07.760Z,2.61
2023-01-29T15:57:48.247Z,2.59
2023-01-29T16:03:39.297Z,2.63
2023-01-29T16:12:49.281Z,2.62
2023-01-29T16:15:53.811Z,2.60
2023-01-29T16:23:07.698Z,2.59
2023-01-29T16:25:43.789Z,2.59
2023-01-29T16:28:20.213Z,2.61
2023-01-29T16:34:48.692Z,2.60
2023-01-29T16:37:26.074Z,2.61
2023-01-29T16:43:48.071Z,2.60
2023-01-29T16:46:53.163Z,2.60
2023-01-29T16:49:39.546Z,2.62
2023-01-29T16:52:46.352Z,2.61
2023-01-29T16:55:30.688Z,2.62
2023-01-29T16:58:14.379Z,2.64
2023-01-29T17:01:22.802Z,2.64
2023-01-29T17:04:23.595Z,2.62
2023-01-29T17:13:40.072Z,2.57
2023-01-29T17:16:30.273Z,2.57
2023-01-29T17:19:01.958Z,2.54
2023-01-29T17:21:32.525Z,2.53
2023-01-29T17:24:05.504Z,2.53
2023-01-29T17:30:19.836Z,2.51
2023-01-29T17:33:29.784Z,2.50
2023-01-29T17:36:11.607Z,2.47
2023-01-29T17:39:01.891Z,2.50
2023-01-29T17:41:35.197Z,2.49
2023-01-29T17:44:09.720Z,2.46
2023-01-29T17:46:40.242Z,2.44
2023-01-29T17:49:22.450Z,2.44
2023-01-29T17:58:25.542Z,2.46
2023-01-29T18:01:04.918Z,2.47
2023-01-29T18:03:39.671Z,2.46
2023-01-29T18:09:04.234Z,2.43
2023-01-29T18:11:42.466Z,2.43
2023-01-29T18:14:18.977Z,2.43
2023-01-29T18:16:48.141Z,2.44
2023-01-29T18:19:34.664Z,2.41
2023-01-29T18:22:04.374Z,2.45
2023-01-29T18:24:34.714Z,2.46
2023-01-29T18:27:14.563Z,2.49
2023-01-29T18:32:43.125Z,2.38
2023-01-29T18:35:18.329Z,2.38
2023-01-29T18:37:49.669Z,2.39
2023-01-29T18:40:19.874Z,2.41
2023-01-29T18:46:07.718Z,2.45
2023-01-29T18:48:44.891Z,2.46
2023-01-29T18:51:14.627Z,2.47
2023-01-29T18:54:16.241Z,2.48
2023-01-29T18:57:13.071Z,2.49
2023-01-29T18:59:42.052Z,2.50
2023-01-29T19:02:23.548Z,2.47
2023-01-29T19:04:57.728Z,2.49
2023-01-29T19:10:20.976Z,2.45
2023-01-29T19:16:15.213Z,2.42
2023-01-29T19:18:44.137Z,2.42
2023-01-29T19:21:18.186Z,2.39
2023-01-29T19:24:01.908Z,2.41
2023-01-29T19:26:56.240Z,2.39
2023-01-29T19:29:24.772Z,2.38
2023-01-29T19:31:54.942Z,2.35
2023-01-29T19:34:26.883Z,2.37
2023-01-29T19:37:05.112Z,2.35
2023-01-29T19:39:35.853Z,2.35
2023-01-29T19:44:58.755Z,2.36
2023-01-29T19:47:49.046Z,2.39
2023-01-29T19:50:52.048Z,2.38
2023-01-29T19:53:20.799Z,2.37
2023-01-29T19:56:05.464Z,2.39
2023-01-29T19:58:41.776Z,2.40
2023-01-29T20:01:33.540Z,2.38
2023-01-29T20:04:02.249Z,2.38
2023-01-29T20:06:37.180Z,2.38
2023-01-29T20:09:08.725Z,2.39
2023-01-29T20:11:53.860Z,2.41
2023-01-29T20:14:22.782Z,2.43
2023-01-29T20:16:52.475Z,2.46
2023-01-29T20:19:24.807Z,2.49
2023-01-29T20:21:54.122Z,2.50
2023-01-29T20:24:32.634Z,2.53
2023-01-29T20:27:17.667Z,2.55
2023-01-29T20:29:53.594Z,2.57
2023-01-29T20:32:48.767Z,2.60
2023-01-29T20:35:16.429Z,2.61
2023-01-29T20:37:44.258Z,2.64
2023-01-29T20:42:55.037Z,2.66
2023-01-29T20:48:48.821Z,2.73
2023-01-29T20:51:20.737Z,2.73
2023-01-29T20:54:18.215Z,2.74
2023-01-29T20:56:47.756Z,2.74
2023-01-29T20:59:22.303Z,2.76
2023-01-29T21:02:00.011Z,2.77
2023-01-29T21:04:35.392Z,2.79
2023-01-29T21:07:03.240Z,2.79
2023-01-29T21:09:32.227Z,2.79
2023-01-29T21:14:52.170Z,2.83
2023-01-29T21:17:29.691Z,2.86
2023-01-29T21:20:00.714Z,2.87
2023-01-29T21:22:29.019Z,2.87
2023-01-29T21:25:00.325Z,2.91
2023-01-29T21:27:41.440Z,2.91
2023-01-29T21:30:11.567Z,2.91
2023-01-29T21:32:42.998Z,2.94
2023-01-29T21:35:12.671Z,2.94
2023-01-29T21:37:49.895Z,2.95
2023-01-29T21:40:21.455Z,2.95
2023-01-29T21:43:07.831Z,2.96
2023-01-29T21:45:37.547Z,2.95
2023-01-29T21:48:25.227Z,2.97
2023-01-29T21:50:54.572Z,2.97
2023-01-29T21:53:22.871Z,3.01
2023-01-29T21:56:09.832Z,3.01
2023-01-29T21:58:49.894Z,3.04
2023-01-29T22:01:36.270Z,3.04
2023-01-29T22:04:10.333Z,3.07
2023-01-29T22:06:40.008Z,3.10
2023-01-29T22:09:13.718Z,3.12
2023-01-29T22:11:53.979Z,3.15
2023-01-29T22:14:24.770Z,3.18
2023-01-29T22:16:54.450Z,3.19
2023-01-29T22:22:28.400Z,3.22
2023-01-29T22:25:02.109Z,3.22
2023-01-29T22:27:36.806Z,3.23
2023-01-29T22:30:10.234Z,3.22
2023-01-29T22:35:48.777Z,3.27
2023-01-29T22:41:04.858Z,3.29
2023-01-29T22:43:43.606Z,3.29
2023-01-29T22:46:13.188Z,3.31
2023-01-29T22:48:43.373Z,3.33
2023-01-29T22:51:19.129Z,3.34
2023-01-29T22:53:59.832Z,3.34
2023-01-29T22:56:41.475Z,3.36
2023-01-29T22:59:14.752Z,3.39
2023-01-29T23:01:44.368Z,3.39
2023-01-29T23:04:30.667Z,3.40
2023-01-29T23:07:01.814Z,3.44
2023-01-29T23:09:31.640Z,3.44
2023-01-29T23:12:01.844Z,3.45
2023-01-29T23:14:31.705Z,3.47
2023-01-29T23:17:04.520Z,3.46
2023-01-29T23:19:40.100Z,3.48
2023-01-29T23:22:09.619Z,3.51
2023-01-29T23:24:39.613Z,3.53
2023-01-29T23:27:31.417Z,3.54
2023-01-29T23:30:03.520Z,3.56
2023-01-29T23:32:32.968Z,3.58
2023-01-29T23:35:02.796Z,3.59
2023-01-29T23:37:35.737Z,3.63
2023-01-29T23:40:10.963Z,3.64
2023-01-29T23:42:45.490Z,3.64
2023-01-29T23:45:14.259Z,3.65
2023-01-29T23:47:42.895Z,3.68
2023-01-29T23:50:11.412Z,3.70
2023-01-29T23:52:40.130Z,3.73
2023-01-29T23:55:09.506Z,3.76
2023-01-29T23:57:40.624Z,3.77
